Time;durP1;ratioP1;P1;durP2;ratioP2;P2;SDS_P1;SDS_P2;PMS_P1;PMS_P2;Temp;Humidity;BMP_temperature;BMP_pressure;BME280_temperature;BME280_humidity;BME280_pressure;Samples;Min_cycle;Max_cycle;Signal;HPM_P1;HPM_P2
2023/07/30 00:01:21;;;;;;;11.30;3.80;;;;;;;13.49;100.00;100933.78;5028679;28;20112;-75
2023/07/30 00:03:46;;;;;;;11.80;4.07;;;;;;;13.47;100.00;100930.34;5030999;28;20044;-76
2023/07/30 00:06:12;;;;;;;7.32;3.22;;;;;;;13.48;100.00;100932.06;5045554;28;20067;-75
2023/07/30 00:08:37;;;;;;;13.48;4.22;;;;;;;13.49;100.00;100939.00;5037633;28;20117;-75
2023/07/30 00:11:02;;;;;;;13.98;4.22;;;;;;;13.48;100.00;100939.94;5041699;28;20132;-76
2023/07/30 00:13:28;;;;;;;11.52;3.80;;;;;;;13.46;100.00;100933.88;5034730;28;20024;-76
2023/07/30 00:15:53;;;;;;;15.43;3.88;;;;;;;13.47;100.00;100925.09;5033014;28;20473;-75
2023/07/30 00:18:18;;;;;;;8.50;3.88;;;;;;;13.44;100.00;100920.84;5038998;28;20083;-76
2023/07/30 00:20:44;;;;;;;9.07;3.38;;;;;;;13.46;100.00;100923.41;5034210;28;20033;-75
2023/07/30 00:23:09;;;;;;;12.98;4.10;;;;;;;13.44;100.00;100930.44;5038211;28;20388;-76
2023/07/30 00:25:35;;;;;;;10.80;3.80;;;;;;;13.39;100.00;100929.75;5043197;28;20091;-76
2023/07/30 00:28:00;;;;;;;8.73;3.67;;;;;;;13.35;100.00;100929.84;5039959;28;20475;-76
2023/07/30 00:30:25;;;;;;;7.78;3.97;;;;;;;13.35;100.00;100932.47;5034506;28;20038;-76
2023/07/30 00:32:51;;;;;;;11.40;4.03;;;;;;;13.32;100.00;100931.72;5032485;28;20026;-76
2023/07/30 00:35:16;;;;;;;8.20;3.67;;;;;;;13.27;100.00;100929.25;5032087;28;20131;-76
2023/07/30 00:37:42;;;;;;;12.75;4.00;;;;;;;13.29;100.00;100934.44;5033349;28;20029;-75
2023/07/30 00:40:07;;;;;;;7.05;3.70;;;;;;;13.11;100.00;100918.41;5030763;28;20032;-75
2023/07/30 00:42:33;;;;;;;11.27;4.50;;;;;;;13.20;100.00;100932.94;5034769;28;20097;-76
2023/07/30 00:44:58;;;;;;;11.38;4.10;;;;;;;13.18;100.00;100928.66;5028952;28;20593;-76
2023/07/30 00:47:25;;;;;;;7.88;3.70;;;;;;;13.14;100.00;100930.53;5031277;28;20025;-76
2023/07/30 00:49:50;;;;;;;8.60;4.03;;;;;;;13.18;100.00;100933.91;5030266;28;20025;-76
2023/07/30 00:52:17;;;;;;;11.85;4.20;;;;;;;13.21;100.00;100942.53;5041296;28;20041;-75
2023/07/30 00:54:43;;;;;;;16.83;4.95;;;;;;;13.19;100.00;100940.88;5032009;28;20029;-75
2023/07/30 00:57:09;;;;;;;12.75;3.88;;;;;;;13.20;100.00;100947.78;5046764;28;20026;-75
2023/07/30 00:59:34;;;;;;;10.18;4.35;;;;;;;13.15;100.00;100940.09;5033261;28;20018;-76
2023/07/30 01:02:02;;;;;;;15.88;4.28;;;;;;;13.16;100.00;100954.03;5030435;28;20029;-76
2023/07/30 01:04:27;;;;;;;10.77;4.07;;;;;;;13.15;100.00;100942.72;5036618;28;20107;-76
2023/07/30 01:06:52;;;;;;;9.65;4.10;;;;;;;13.15;100.00;100950.56;5034673;28;20551;-76
2023/07/30 01:09:18;;;;;;;13.07;4.57;;;;;;;13.16;100.00;100952.28;5038038;28;20046;-75
2023/07/30 01:11:44;;;;;;;10.30;4.40;;;;;;;13.14;100.00;100948.84;5039823;28;20029;-76
2023/07/30 01:14:10;;;;;;;8.77;3.83;;;;;;;13.09;100.00;100948.16;5032188;28;20056;-76
2023/07/30 01:16:35;;;;;;;12.65;4.20;;;;;;;13.10;100.00;100939.38;5036109;28;20372;-75
2023/07/30 01:19:04;;;;;;;10.00;4.30;;;;;;;13.20;100.00;100955.66;5036017;28;20025;-75
2023/07/30 01:21:34;;;;;;;11.43;3.97;;;;;;;13.18;100.00;100970.53;5034001;28;20472;-76
2023/07/30 01:23:59;;;;;;;12.07;3.90;;;;;;;13.20;100.00;100976.59;5039957;28;20492;-75
2023/07/30 01:26:30;;;;;;;13.35;4.00;;;;;;;13.18;100.00;100965.31;5041700;28;20025;-76
2023/07/30 01:29:00;;;;;;;9.57;3.85;;;;;;;13.16;100.00;100962.75;5044196;28;20036;-76
2023/07/30 01:31:27;;;;;;;12.05;4.00;;;;;;;13.19;100.00;100972.28;5036523;28;20040;-76
2023/07/30 01:33:55;;;;;;;12.98;3.65;;;;;;;13.18;100.00;100979.28;5038160;28;20083;-75
2023/07/30 01:36:20;;;;;;;15.13;3.78;;;;;;;13.18;100.00;100975.78;5045677;28;20115;-76
2023/07/30 01:38:47;;;;;;;10.90;4.15;;;;;;;13.16;100.00;100981.06;5040614;28;20038;-75
2023/07/30 01:41:12;;;;;;;12.70;4.30;;;;;;;13.13;100.00;100987.25;5040979;28;20021;-76
2023/07/30 01:43:38;;;;;;;8.18;4.30;;;;;;;13.12;100.00;100977.69;5039890;28;20028;-75
2023/07/30 01:46:03;;;;;;;10.48;4.40;;;;;;;13.09;100.00;100982.19;5033370;28;20071;-76
2023/07/30 01:48:28;;;;;;;15.10;4.47;;;;;;;13.08;100.00;100978.72;5039584;28;20379;-75
2023/07/30 01:50:54;;;;;;;10.60;4.57;;;;;;;13.07;100.00;100990.06;5041295;28;20026;-76
2023/07/30 01:53:19;;;;;;;11.98;4.25;;;;;;;13.08;100.00;100988.34;5044717;28;20025;-76
2023/07/30 01:55:46;;;;;;;12.13;4.70;;;;;;;13.04;100.00;100984.06;5042797;28;20435;-75
2023/07/30 01:58:12;;;;;;;15.98;4.32;;;;;;;13.07;100.00;100991.84;5032939;28;20114;-75
2023/07/30 02:00:38;;;;;;;15.32;4.60;;;;;;;13.03;100.00;100977.13;5031369;28;20035;-75
2023/07/30 02:03:04;;;;;;;9.55;4.45;;;;;;;13.07;100.00;100994.44;5036481;28;20105;-76
2023/07/30 02:05:29;;;;;;;11.27;4.00;;;;;;;13.05;100.00;100991.03;5033229;28;20464;-75
2023/07/30 02:07:54;;;;;;;10.20;3.90;;;;;;;13.02;100.00;100981.53;5039053;28;20025;-75
2023/07/30 02:10:20;;;;;;;13.18;4.53;;;;;;;13.10;100.00;100994.34;5046210;28;20029;-76
2023/07/30 02:12:45;;;;;;;11.70;4.38;;;;;;;13.16;100.00;100988.94;5043931;28;20036;-75
2023/07/30 02:15:10;;;;;;;8.98;3.95;;;;;;;13.20;100.00;100984.44;5043597;28;20116;-75
2023/07/30 02:17:36;;;;;;;9.85;4.68;;;;;;;13.20;100.00;100985.31;5031820;28;20025;-75
2023/07/30 02:20:01;;;;;;;17.35;4.72;;;;;;;13.24;100.00;100973.88;5032676;28;20056;-75
2023/07/30 02:22:26;;;;;;;14.63;4.57;;;;;;;13.23;100.00;100966.88;5048150;28;20048;-76
2023/07/30 02:24:52;;;;;;;18.52;4.13;;;;;;;13.19;100.00;100957.41;5030780;28;20053;-76
2023/07/30 02:27:17;;;;;;;13.70;4.30;;;;;;;13.23;100.00;100964.25;5030453;28;20484;-75
2023/07/30 02:29:42;;;;;;;15.63;4.78;;;;;;;13.27;100.00;100973.75;5038525;28;20473;-75
2023/07/30 02:32:08;;;;;;;11.20;4.43;;;;;;;13.30;100.00;100980.66;5031965;28;20025;-76
2023/07/30 02:34:33;;;;;;;12.32;4.60;;;;;;;13.39;100.00;100977.75;5031110;28;20523;-76
2023/07/30 02:36:58;;;;;;;12.85;5.25;;;;;;;13.46;100.00;100976.63;5036881;28;20109;-76
2023/07/30 02:39:24;;;;;;;14.38;4.55;;;;;;;13.54;100.00;100973.78;5044883;28;20078;-76
2023/07/30 02:41:49;;;;;;;11.57;4.60;;;;;;;13.61;100.00;100974.41;5042573;28;20025;-76
2023/07/30 02:44:15;;;;;;;14.52;4.85;;;;;;;13.57;100.00;100961.44;5036667;28;20025;-76
2023/07/30 02:46:40;;;;;;;11.57;4.13;;;;;;;13.68;100.00;100984.63;5040380;28;20027;-75
2023/07/30 02:49:05;;;;;;;12.30;4.00;;;;;;;13.73;100.00;100964.38;5036753;28;20454;-76
2023/07/30 02:51:30;;;;;;;10.48;3.85;;;;;;;13.74;100.00;100973.09;5038785;28;20022;-76
2023/07/30 02:54:04;;;;;;;12.13;4.57;;;;;;;13.77;100.00;100976.47;5038968;28;20033;-75
2023/07/30 02:56:29;;;;;;;18.67;4.90;;;;;;;13.78;100.00;100977.31;5039214;28;20163;-76
2023/07/30 02:58:54;;;;;;;18.42;5.57;;;;;;;13.81;100.00;100967.56;5042778;28;20116;-76
2023/07/30 03:01:19;;;;;;;10.90;4.22;;;;;;;13.84;100.00;100974.47;5037952;28;20725;-76
2023/07/30 03:03:45;;;;;;;13.48;4.78;;;;;;;13.86;100.00;100979.66;5035734;28;20022;-76
2023/07/30 03:06:10;;;;;;;14.05;4.65;;;;;;;13.87;100.00;100971.75;5036083;28;20025;-76
2023/07/30 03:08:36;;;;;;;12.77;4.47;;;;;;;13.88;100.00;100972.59;5041413;28;20033;-75
2023/07/30 03:11:01;;;;;;;17.95;4.78;;;;;;;13.89;100.00;100974.31;5037560;28;20013;-76
2023/07/30 03:13:27;;;;;;;12.85;4.60;;;;;;;13.89;100.00;100975.16;5032240;28;20111;-76
2023/07/30 03:15:52;;;;;;;14.40;4.80;;;;;;;13.92;100.00;100975.06;5031662;28;20034;-76
2023/07/30 03:18:17;;;;;;;12.73;4.15;;;;;;;13.95;100.00;100984.59;5039154;28;20037;-75
2023/07/30 03:20:42;;;;;;;16.02;4.95;;;;;;;13.94;100.00;100983.72;5035298;28;20017;-75
2023/07/30 03:23:08;;;;;;;11.57;4.32;;;;;;;13.96;100.00;100973.19;5037495;28;20072;-76
2023/07/30 03:25:33;;;;;;;13.80;4.88;;;;;;;13.90;100.00;100965.56;5038655;28;20099;-76
2023/07/30 03:27:58;;;;;;;13.38;3.75;;;;;;;13.98;100.00;100980.09;5033669;28;20144;-76
2023/07/30 03:30:24;;;;;;;13.25;4.70;;;;;;;13.88;100.00;100970.00;5038075;28;20025;-75
2023/07/30 03:32:49;;;;;;;15.43;4.30;;;;;;;13.97;100.00;100980.16;5038520;28;20040;-76
2023/07/30 03:35:14;;;;;;;12.63;4.40;;;;;;;14.00;100.00;100983.50;5031271;28;20049;-76
2023/07/30 03:37:40;;;;;;;9.38;3.70;;;;;;;13.99;100.00;100967.81;5040111;28;20032;-76
2023/07/30 03:40:05;;;;;;;13.20;3.80;;;;;;;14.03;100.00;100985.19;5040747;28;20031;-76
2023/07/30 03:42:32;;;;;;;16.23;4.25;;;;;;;14.02;100.00;100981.69;5037814;28;20128;-76
2023/07/30 03:44:57;;;;;;;15.80;4.32;;;;;;;14.08;100.00;100988.47;5031093;28;20111;-76
2023/07/30 03:47:22;;;;;;;15.90;4.88;;;;;;;14.09;100.00;100987.56;5029178;28;20502;-76
2023/07/30 03:49:48;;;;;;;12.05;3.88;;;;;;;14.10;100.00;100988.44;5036522;28;20032;-76
2023/07/30 03:52:13;;;;;;;14.75;4.25;;;;;;;14.07;100.00;100984.16;5038221;28;20059;-76
2023/07/30 03:54:38;;;;;;;15.68;4.57;;;;;;;14.10;100.00;100998.94;5034132;28;20033;-76
2023/07/30 03:57:04;;;;;;;16.52;4.20;;;;;;;14.12;100.00;100997.94;5034425;28;20037;-76
2023/07/30 03:59:29;;;;;;;17.55;4.20;;;;;;;14.13;100.00;101006.69;5033153;28;20025;-76
2023/07/30 04:01:55;;;;;;;13.55;4.68;;;;;;;14.15;100.00;100997.81;5026845;28;20021;-75
2023/07/30 04:04:20;;;;;;;14.70;4.88;;;;;;;14.15;100.00;100997.81;5031739;28;20024;-75
2023/07/30 04:06:45;;;;;;;23.25;5.00;;;;;;;14.17;100.00;101005.66;5037708;28;20025;-75
2023/07/30 04:09:11;;;;;;;15.63;4.50;;;;;;;14.17;100.00;101001.25;5033591;28;20474;-76
2023/07/30 04:11:36;;;;;;;14.75;5.13;;;;;;;14.17;100.00;101000.41;5039066;28;20056;-76
2023/07/30 04:14:01;;;;;;;13.23;5.32;;;;;;;14.16;100.00;100998.69;5034082;28;20104;-75
2023/07/30 04:16:27;;;;;;;15.60;5.63;;;;;;;14.14;100.00;101009.25;5033855;28;20037;-75
2023/07/30 04:18:52;;;;;;;19.42;5.43;;;;;;;14.11;100.00;100996.25;5031270;28;20104;-76
2023/07/30 04:21:17;;;;;;;18.30;5.32;;;;;;;14.13;100.00;100997.03;5037613;28;20029;-76
2023/07/30 04:23:43;;;;;;;14.77;6.25;;;;;;;14.10;100.00;100986.66;5032673;28;20017;-75
2023/07/30 04:26:08;;;;;;;15.65;5.38;;;;;;;14.20;100.00;100998.53;5040079;28;20067;-75
2023/07/30 04:28:33;;;;;;;21.00;6.03;;;;;;;14.20;100.00;100998.53;5037197;28;20021;-75
2023/07/30 04:30:59;;;;;;;17.33;5.43;;;;;;;14.26;100.00;101013.19;5038396;28;20111;-75
2023/07/30 04:33:26;;;;;;;15.07;6.03;;;;;;;14.34;100.00;100997.19;5038593;28;20477;-76
2023/07/30 04:35:51;;;;;;;22.80;6.28;;;;;;;14.35;100.00;100998.88;5034103;28;20052;-75
2023/07/30 04:38:17;;;;;;;13.48;6.15;;;;;;;14.35;100.00;100998.88;5040862;28;20033;-75
2023/07/30 04:40:42;;;;;;;24.48;6.93;;;;;;;14.36;100.00;100987.50;5041676;28;20041;-75
2023/07/30 04:43:08;;;;;;;13.23;6.60;;;;;;;14.41;100.00;100998.66;5037906;28;20029;-75
2023/07/30 04:45:33;;;;;;;21.00;6.90;;;;;;;14.42;100.00;100990.75;5029331;28;20095;-75
2023/07/30 04:47:58;;;;;;;18.90;6.97;;;;;;;14.40;100.00;100975.97;5035505;28;20021;-75
2023/07/30 04:50:24;;;;;;;18.80;6.50;;;;;;;14.58;100.00;101006.78;5037125;28;20025;-75
2023/07/30 04:52:49;;;;;;;20.23;6.93;;;;;;;14.65;100.00;100999.53;5034491;28;20026;-75
2023/07/30 04:55:14;;;;;;;16.73;6.55;;;;;;;14.72;100.00;100999.25;5035940;28;20127;-75
2023/07/30 04:57:40;;;;;;;14.30;7.05;;;;;;;14.71;100.00;100991.44;5040747;28;20519;-75
2023/07/30 05:00:06;;;;;;;20.08;7.22;;;;;;;14.79;100.00;101007.75;5032431;28;20021;-74
2023/07/30 05:02:32;;;;;;;18.52;6.40;;;;;;;14.86;100.00;101003.13;5029994;28;20494;-75
2023/07/30 05:04:57;;;;;;;20.92;8.05;;;;;;;14.89;100.00;101003.00;5030570;28;20053;-75
2023/07/30 05:07:23;;;;;;;15.82;6.55;;;;;;;14.88;100.00;101014.44;5033377;28;20025;-75
2023/07/30 05:09:48;;;;;;;18.98;7.25;;;;;;;14.92;100.00;101013.38;5038959;28;20025;-76
2023/07/30 05:12:14;;;;;;;18.38;7.40;;;;;;;14.89;100.00;101011.72;5037318;28;20446;-75
2023/07/30 05:14:39;;;;;;;25.88;8.30;;;;;;;14.95;100.00;101029.03;5031465;28;20041;-76
2023/07/30 05:17:05;;;;;;;18.55;6.68;;;;;;;14.95;100.00;101021.16;5043461;28;20107;-76
2023/07/30 05:19:30;;;;;;;19.45;6.93;;;;;;;14.97;100.00;101032.41;5029413;28;20029;-76
2023/07/30 05:21:55;;;;;;;22.77;7.80;;;;;;;14.96;100.00;101033.34;5030308;28;20379;-75
2023/07/30 05:24:21;;;;;;;20.40;6.82;;;;;;;14.97;100.00;101032.41;5034545;28;20034;-75
2023/07/30 05:26:46;;;;;;;25.83;6.78;;;;;;;15.01;100.00;101028.78;5039370;28;20027;-75
2023/07/30 05:29:11;;;;;;;20.73;6.22;;;;;;;15.01;100.00;101036.66;5032314;28;20495;-75
2023/07/30 05:31:36;;;;;;;18.30;6.03;;;;;;;15.06;100.00;101034.69;5031114;28;20064;-75
2023/07/30 05:34:02;;;;;;;18.60;6.97;;;;;;;15.05;100.00;101027.75;5036415;28;20046;-75
2023/07/30 05:36:27;;;;;;;22.73;6.80;;;;;;;15.09;100.00;101026.69;5033208;28;20034;-75
2023/07/30 05:38:52;;;;;;;23.90;6.72;;;;;;;15.11;100.00;101022.25;5041951;28;20096;-75
2023/07/30 05:41:18;;;;;;;19.42;6.20;;;;;;;15.14;100.00;101030.00;5037918;28;20047;-75
2023/07/30 05:43:43;;;;;;;19.02;6.38;;;;;;;15.17;100.00;101024.66;5035120;28;20100;-75
2023/07/30 05:46:08;;;;;;;21.65;6.47;;;;;;;15.16;100.00;101017.66;5036890;28;20021;-75
2023/07/30 05:48:33;;;;;;;17.83;6.43;;;;;;;15.25;100.00;101024.34;5036224;28;20032;-74
2023/07/30 05:50:59;;;;;;;17.50;6.40;;;;;;;15.30;100.00;101026.75;5034029;28;20029;-75
2023/07/30 05:53:24;;;;;;;22.38;6.97;;;;;;;15.32;100.00;101017.06;5035605;28;20049;-76
2023/07/30 05:55:50;;;;;;;22.95;6.68;;;;;;;15.38;100.00;101025.53;5037050;28;20034;-76
2023/07/30 05:58:15;;;;;;;21.40;6.10;;;;;;;15.42;100.00;101021.03;5037271;28;20029;-75
2023/07/30 06:00:41;;;;;;;19.45;6.88;;;;;;;15.46;100.00;101028.69;5027870;28;20029;-75
2023/07/30 06:03:08;;;;;;;21.88;6.03;;;;;;;15.53;100.00;101034.59;5028573;28;20045;-75
2023/07/30 06:05:39;;;;;;;17.67;6.40;;;;;;;15.54;100.00;101024.94;5031330;28;20025;-75
2023/07/30 06:08:04;;;;;;;19.17;5.70;;;;;;;15.59;100.00;101018.53;5036964;28;20068;-75
2023/07/30 06:10:29;;;;;;;19.05;7.47;;;;;;;15.74;100.00;101029.38;5039617;28;20037;-75
2023/07/30 06:12:55;;;;;;;22.58;6.75;;;;;;;15.81;100.00;101038.72;5034061;28;20048;-75
2023/07/30 06:15:20;;;;;;;14.93;5.90;;;;;;;15.81;100.00;101038.72;5037564;28;20037;-75
2023/07/30 06:17:45;;;;;;;21.23;6.15;;;;;;;15.71;100.00;101025.09;5039608;28;20030;-75
2023/07/30 06:20:11;;;;;;;20.33;6.60;;;;;;;15.81;100.00;101041.34;5037039;28;20606;-75
2023/07/30 06:22:36;;;;;;;21.95;7.45;;;;;;;15.85;100.00;101035.88;5033167;28;20076;-75
2023/07/30 06:25:02;;;;;;;26.38;6.80;;;;;;;15.91;100.00;101040.88;5033817;28;20026;-75
2023/07/30 06:27:27;;;;;;;19.75;7.55;;;;;;;15.96;100.00;101042.47;5035409;28;20030;-75
2023/07/30 06:29:53;;;;;;;22.58;6.72;;;;;;;16.01;100.00;101040.50;5027529;28;20028;-75
2023/07/30 06:32:18;;;;;;;24.50;7.05;;;;;;;16.05;100.00;101045.56;5025330;28;20029;-76
2023/07/30 06:34:43;;;;;;;25.25;7.18;;;;;;;16.07;100.00;101041.09;5027921;28;20052;-75
2023/07/30 06:37:08;;;;;;;21.80;5.88;;;;;;;16.10;100.00;101046.22;5024276;28;20026;-75
2023/07/30 06:39:34;;;;;;;19.30;5.95;;;;;;;16.17;100.00;101045.97;5041847;28;20052;-76
2023/07/30 06:41:59;;;;;;;22.98;6.35;;;;;;;16.20;100.00;101036.16;5035026;28;20428;-75
2023/07/30 06:44:25;;;;;;;17.58;5.50;;;;;;;16.26;100.00;101035.88;5036437;28;20381;-79
2023/07/30 06:46:51;;;;;;;19.42;5.78;;;;;;;16.33;100.00;101034.69;5036896;28;20034;-78
2023/07/30 06:49:16;;;;;;;23.83;6.05;;;;;;;16.36;100.00;101029.28;5039535;28;20025;-79
2023/07/30 06:51:41;;;;;;;20.02;5.90;;;;;;;16.37;100.00;101040.66;5042512;28;20036;-79
2023/07/30 06:54:31;;;;;;;23.85;6.28;;;;;;;16.15;100.00;101002.19;5050879;28;20029;-79
2023/07/30 06:56:56;;;;;;;17.20;5.57;;;;;;;16.35;100.00;101035.50;5214228;22;20128;-79
2023/07/30 06:59:21;;;;;;;19.92;5.57;;;;;;;16.39;100.00;101041.47;5043381;28;20159;-80
2023/07/30 07:01:47;;;;;;;22.63;5.93;;;;;;;16.37;100.00;101054.66;5044886;28;20025;-79
2023/07/30 07:04:12;;;;;;;17.30;6.15;;;;;;;16.34;100.00;101052.19;5042597;28;20361;-78
2023/07/30 07:06:37;;;;;;;19.80;5.55;;;;;;;16.31;100.00;101054.09;5046951;28;20091;-78
2023/07/30 07:09:03;;;;;;;19.13;5.10;;;;;;;16.25;100.00;101054.34;5037454;28;20668;-79
2023/07/30 07:11:28;;;;;;;18.65;5.65;;;;;;;16.17;100.00;101048.59;5044526;28;20148;-79
2023/07/30 07:13:53;;;;;;;21.42;5.82;;;;;;;16.09;100.00;101057.66;5045997;28;20104;-79
2023/07/30 07:16:19;;;;;;;18.73;4.65;;;;;;;16.04;100.00;101064.88;5033981;28;20036;-79
2023/07/30 07:18:44;;;;;;;15.40;5.20;;;;;;;16.04;100.00;101058.78;5039085;28;20024;-79
2023/07/30 07:21:10;;;;;;;23.88;5.82;;;;;;;16.20;100.00;101051.09;5034723;28;20131;-79
2023/07/30 07:23:36;;;;;;;17.65;5.55;;;;;;;16.38;100.00;101051.13;5039842;28;20419;-84
2023/07/30 07:26:01;;;;;;;19.60;5.43;;;;;;;16.65;100.00;101055.25;5037412;28;20033;-80
2023/07/30 07:28:26;;;;;;;16.92;5.05;;;;;;;16.88;100.00;101052.44;5040084;28;20065;-86
2023/07/30 07:30:51;;;;;;;15.27;5.30;;;;;;;17.03;100.00;101043.78;5036378;28;20056;-79
2023/07/30 07:33:17;;;;;;;18.77;4.80;;;;;;;17.27;100.00;101040.94;5043228;28;20048;-78
2023/07/30 07:35:42;;;;;;;14.13;4.93;;;;;;;17.72;100.00;101042.22;5044412;28;20036;-79
2023/07/30 07:38:07;;;;;;;17.20;4.10;;;;;;;18.00;100.00;101061.03;5039891;28;20354;-79
2023/07/30 07:40:39;;;;;;;14.52;4.60;;;;;;;18.29;100.00;101063.13;5035341;28;20029;-79
2023/07/30 07:43:05;;;;;;;16.88;4.85;;;;;;;18.34;100.00;101067.22;5035658;28;20036;-79
2023/07/30 07:45:30;;;;;;;14.52;4.00;;;;;;;18.26;100.00;101064.13;5035369;28;20022;-79
2023/07/30 07:47:56;;;;;;;17.42;4.60;;;;;;;18.06;100.00;101065.16;5034910;28;20029;-79
2023/07/30 07:50:21;;;;;;;15.63;4.18;;;;;;;17.92;100.00;101071.16;5037491;28;20036;-79
2023/07/30 07:52:46;;;;;;;16.92;4.50;;;;;;;17.98;100.00;101069.97;5042506;28;20543;-79
2023/07/30 07:55:11;;;;;;;21.40;4.55;;;;;;;18.11;100.00;101062.28;5034435;28;20071;-79
2023/07/30 07:57:37;;;;;;;11.55;3.63;;;;;;;18.23;100.00;101059.00;5038190;28;20095;-79
2023/07/30 08:00:05;;;;;;;15.20;4.15;;;;;;;18.24;100.00;101071.25;5043961;28;20025;-79
2023/07/30 08:02:30;;;;;;;16.13;4.78;;;;;;;18.48;100.00;101070.00;5034067;28;20025;-79
2023/07/30 08:04:55;;;;;;;16.63;5.10;;;;;;;18.83;100.00;101051.41;5037950;28;20035;-80
2023/07/30 08:07:21;;;;;;;19.52;4.70;;;;;;;18.91;100.00;101069.50;5036147;28;20029;-79
2023/07/30 08:09:46;;;;;;;15.88;4.15;;;;;;;18.79;100.00;101073.66;5032025;28;20482;-80
2023/07/30 08:12:12;;;;;;;14.60;3.60;;;;;;;18.78;100.00;101069.31;5046988;28;20376;-80
2023/07/30 08:14:37;;;;;;;16.50;4.70;;;;;;;18.93;100.00;101071.13;5035561;28;20032;-80
2023/07/30 08:17:04;;;;;;;15.60;3.85;;;;;;;19.24;100.00;101081.78;5035213;28;20112;-80
2023/07/30 08:19:30;;;;;;;16.70;4.00;;;;;;;19.27;100.00;101078.97;5036240;28;20421;-80
2023/07/30 08:21:56;;;;;;;15.38;4.00;;;;;;;19.13;100.00;101079.75;5034253;28;20068;-79
2023/07/30 08:24:22;;;;;;;16.58;4.03;;;;;;;18.86;100.00;101077.66;5038099;28;20390;-79
2023/07/30 08:26:47;;;;;;;17.30;5.13;;;;;;;18.68;100.00;101079.50;5036380;28;20025;-79
2023/07/30 08:29:13;;;;;;;21.80;5.07;;;;;;;18.60;100.00;101094.88;5036059;28;20112;-76
2023/07/30 08:31:39;;;;;;;19.10;4.28;;;;;;;18.51;100.00;101083.94;5041142;28;20067;-76
2023/07/30 08:34:04;;;;;;;13.38;3.95;;;;;;;18.46;100.00;101087.69;5027630;28;20038;-77
2023/07/30 08:36:29;;;;;;;13.43;3.75;;;;;;;18.55;100.00;101085.50;5032511;28;20404;-77
2023/07/30 08:38:55;;;;;;;14.52;3.90;;;;;;;18.62;100.00;101087.75;5044063;28;20108;-77
2023/07/30 08:41:20;;;;;;;14.13;3.92;;;;;;;18.56;100.00;101071.38;5033061;28;20028;-76
2023/07/30 08:43:48;;;;;;;14.38;3.80;;;;;;;18.60;100.00;101078.19;5041319;28;20031;-76
2023/07/30 08:46:14;;;;;;;13.73;4.07;;;;;;;18.70;100.00;101084.69;5041684;28;20100;-76
2023/07/30 08:48:40;;;;;;;16.40;4.07;;;;;;;18.55;100.00;101074.97;5042818;28;20083;-76
2023/07/30 08:51:05;;;;;;;18.60;3.63;;;;;;;18.38;100.00;101079.34;5039118;28;20473;-77
2023/07/30 08:53:31;;;;;;;15.15;3.80;;;;;;;18.30;100.00;101092.06;5035449;28;20080;-76
2023/07/30 08:55:58;;;;;;;12.18;3.60;;;;;;;18.29;100.00;101078.97;5033420;28;20026;-79
2023/07/30 08:58:26;;;;;;;12.57;3.88;;;;;;;18.35;100.00;101070.72;5042510;28;20041;-77
2023/07/30 09:00:54;;;;;;;12.90;3.72;;;;;;;18.60;100.00;101079.03;5032344;28;20527;-76
2023/07/30 09:03:22;;;;;;;16.70;4.30;;;;;;;18.81;100.00;101078.88;5039926;28;20033;-76
2023/07/30 09:05:48;;;;;;;15.93;4.22;;;;;;;18.94;100.00;101059.63;5034180;28;20076;-76
2023/07/30 09:08:14;;;;;;;10.05;4.00;;;;;;;19.07;100.00;101069.53;5032008;28;20387;-76
2023/07/30 09:10:40;;;;;;;11.85;3.63;;;;;;;19.30;100.00;101074.38;5042783;28;20031;-76
2023/07/30 09:13:05;;;;;;;12.70;3.95;;;;;;;19.51;100.00;101071.44;5042276;28;20044;-76
2023/07/30 09:15:37;;;;;;;16.63;4.00;;;;;;;19.92;100.00;101074.38;5041867;28;20043;-76
2023/07/30 09:18:03;;;;;;;16.20;4.15;;;;;;;20.05;99.08;101072.72;5037913;28;20036;-76
2023/07/30 09:20:36;;;;;;;10.85;3.55;;;;;;;20.04;98.56;101070.97;5029806;28;20017;-76
2023/07/30 09:23:02;;;;;;;;;;;;;;;20.22;100.00;101076.13;5039807;28;20030;-76
2023/07/30 09:25:27;;;;;;;11.87;3.37;;;;;;;20.27;98.65;101079.34;5042527;28;19913;-78
2023/07/30 09:27:53;;;;;;;10.00;3.78;;;;;;;20.03;85.67;101076.38;5039180;28;20041;-77
2023/07/30 09:30:23;;;;;;;11.05;3.17;;;;;;;19.79;91.64;101066.31;5030707;28;20372;-76
2023/07/30 09:32:53;;;;;;;12.68;3.47;;;;;;;19.94;94.10;101068.97;5046470;28;20028;-76
2023/07/30 09:35:18;;;;;;;10.65;3.30;;;;;;;20.13;94.99;101069.59;5035303;28;20029;-76
2023/07/30 09:37:43;;;;;;;9.80;3.10;;;;;;;20.55;95.68;101065.31;5029961;28;20406;-75
2023/07/30 09:40:12;;;;;;;10.35;3.28;;;;;;;20.60;86.73;101079.16;5034324;28;20029;-75
2023/07/30 09:42:39;;;;;;;12.00;2.60;;;;;;;20.76;86.25;101068.41;5046871;28;20024;-75
2023/07/30 09:45:09;;;;;;;10.32;2.70;;;;;;;20.71;88.48;101079.31;5031945;28;20087;-76
2023/07/30 09:47:37;;;;;;;11.30;2.75;;;;;;;20.72;89.24;101073.06;5036679;28;20025;-76
2023/07/30 09:50:02;;;;;;;12.82;3.17;;;;;;;20.63;89.96;101083.38;5041818;28;20049;-76
2023/07/30 09:52:29;;;;;;;12.00;2.88;;;;;;;20.62;90.70;101079.88;5046243;28;20049;-75
2023/07/30 09:54:57;;;;;;;9.45;2.60;;;;;;;20.71;84.57;101079.31;5039267;28;20445;-76
2023/07/30 09:57:22;;;;;;;12.40;2.75;;;;;;;20.72;87.25;101088.13;5042270;28;20091;-75
2023/07/30 09:59:48;;;;;;;8.60;3.33;;;;;;;20.57;84.06;101069.59;5033067;28;20026;-75
2023/07/30 10:02:13;;;;;;;12.70;2.72;;;;;;;20.60;83.35;101086.22;5030695;28;20032;-75
2023/07/30 10:04:43;;;;;;;10.65;3.15;;;;;;;20.62;87.05;101092.28;5042530;28;20026;-75
2023/07/30 10:07:16;;;;;;;9.02;2.20;;;;;;;20.52;87.38;101086.69;5042359;28;20033;-75
2023/07/30 10:09:44;;;;;;;10.25;2.90;;;;;;;20.26;85.01;101081.16;5034161;28;20032;-75
2023/07/30 10:12:12;;;;;;;10.65;2.35;;;;;;;19.95;90.46;101086.59;5035790;28;20036;-76
2023/07/30 10:14:37;;;;;;;8.80;2.97;;;;;;;19.66;93.10;101101.50;5040455;28;20029;-75
2023/07/30 10:17:03;;;;;;;10.20;2.70;;;;;;;19.55;93.36;101099.41;5040834;28;20033;-75
2023/07/30 10:19:29;;;;;;;6.80;2.33;;;;;;;19.62;93.88;101090.22;5036647;28;20057;-74
2023/07/30 10:22:18;;;;;;;14.27;2.83;;;;;;;19.72;91.61;101101.13;5038384;28;20047;-73
2023/07/30 10:24:56;;;;;;;8.30;2.90;;;;;;;20.33;91.54;101106.31;5037073;28;20033;-74
2023/07/30 10:27:26;;;;;;;9.15;2.50;;;;;;;20.93;89.65;101097.38;5034558;28;20060;-74
2023/07/30 10:30:14;;;;;;;9.20;2.10;;;;;;;21.74;84.57;101100.13;5034662;28;20029;-74
2023/07/30 10:32:41;;;;;;;8.52;2.45;;;;;;;21.87;80.34;101101.94;5041157;28;20025;-76
2023/07/30 10:35:06;;;;;;;9.80;2.20;;;;;;;21.60;76.57;101113.44;5038490;28;20033;-75
2023/07/30 10:37:31;;;;;;;9.15;2.63;;;;;;;21.27;74.99;101119.94;5050615;28;20098;-74
2023/07/30 10:39:57;;;;;;;9.90;2.50;;;;;;;20.97;77.14;101122.75;5034899;28;20036;-75
2023/07/30 10:42:22;;;;;;;7.95;2.10;;;;;;;20.86;75.11;101116.38;5047783;28;20100;-75
2023/07/30 10:44:49;;;;;;;9.18;2.30;;;;;;;20.93;76.81;101118.59;5037958;28;20499;-75
2023/07/30 10:47:14;;;;;;;11.60;2.50;;;;;;;21.02;82.79;101136.53;5029599;28;20111;-76
2023/07/30 10:49:43;;;;;;;5.45;1.80;;;;;;;20.83;78.77;101125.41;5028965;28;20069;-76
2023/07/30 10:52:09;;;;;;;4.63;2.10;;;;;;;20.83;82.33;101114.81;5023083;28;20041;-77
2023/07/30 10:54:35;;;;;;;10.55;2.50;;;;;;;20.48;72.50;101104.53;5029718;28;20029;-76
2023/07/30 10:57:00;;;;;;;9.05;2.10;;;;;;;20.05;80.67;101108.91;5042772;28;20232;-76
2023/07/30 10:59:25;;;;;;;7.10;1.83;;;;;;;19.95;82.18;101116.53;5041024;28;20056;-76
2023/07/30 11:01:52;;;;;;;9.55;2.15;;;;;;;20.06;80.25;101114.09;5038124;28;20032;-75
2023/07/30 11:04:20;;;;;;;13.20;2.63;;;;;;;19.94;81.77;101119.25;5033195;28;20049;-77
2023/07/30 11:06:47;;;;;;;6.88;2.22;;;;;;;19.76;87.72;101124.69;5038523;28;20103;-75